Time;durP1;ratioP1;P1;durP2;ratioP2;P2;SDS_P1;SDS_P2;PMS_P1;PMS_P2;Temp;Humidity;BMP_temperature;BMP_pressure;BME280_temperature;BME280_humidity;BME280_pressure;Samples;Min_cycle;Max_cycle;Signal;HPM_P1;HPM_P2
2023/06/16 00:01:14;;;;;;;8.40;8.00;;;19.40;51.80;;;;;;4931843;28;20503;-83
2023/06/16 00:03:49;;;;;;;8.33;7.93;;;19.40;52.00;;;;;;4932407;28;20468;-83
2023/06/16 00:06:20;;;;;;;10.03;9.37;;;19.40;53.40;;;;;;4941214;28;20460;-84
2023/06/16 00:08:51;;;;;;;9.20;8.67;;;19.30;54.40;;;;;;4936126;28;20468;-83
2023/06/16 00:11:19;;;;;;;9.00;8.50;;;19.40;54.90;;;;;;4941062;28;20483;-84
2023/06/16 00:13:49;;;;;;;8.30;8.00;;;19.30;54.50;;;;;;4935894;28;20461;-84
2023/06/16 00:16:19;;;;;;;9.00;8.60;;;19.20;53.70;;;;;;4939576;28;20472;-84
2023/06/16 00:18:51;;;;;;;8.60;8.20;;;19.20;55.50;;;;;;4935356;29;20466;-85
2023/06/16 00:21:27;;;;;;;8.77;8.37;;;19.20;54.40;;;;;;4940359;29;20571;-84
2023/06/16 00:23:56;;;;;;;8.40;7.70;;;19.20;55.10;;;;;;4941412;28;20475;-84
2023/06/16 00:26:26;;;;;;;8.80;8.37;;;19.20;55.40;;;;;;4938112;28;20462;-84
2023/06/16 00:28:54;;;;;;;8.57;8.17;;;19.20;53.70;;;;;;4942534;28;20461;-84
2023/06/16 00:31:25;;;;;;;8.23;7.90;;;19.20;54.80;;;;;;4935689;28;20615;-84
2023/06/16 00:33:53;;;;;;;8.47;7.97;;;19.20;54.70;;;;;;4953075;28;20480;-86
2023/06/16 00:36:23;;;;;;;8.40;8.00;;;19.10;53.80;;;;;;4940934;28;20457;-85
2023/06/16 00:38:51;;;;;;;8.53;8.13;;;19.00;52.50;;;;;;4938302;28;20456;-85
2023/06/16 00:41:19;;;;;;;9.20;8.70;;;19.00;51.90;;;;;;4937879;28;20573;-81
2023/06/16 00:43:47;;;;;;;8.27;7.87;;;19.00;52.40;;;;;;4941348;28;20483;-85
2023/06/16 00:46:26;;;;;;;9.13;8.63;;;19.00;53.80;;;;;;4942120;28;20837;-84
2023/06/16 00:48:55;;;;;;;8.20;7.80;;;19.00;52.70;;;;;;4940711;28;20539;-86
2023/06/16 00:51:27;;;;;;;8.97;8.47;;;19.00;53.30;;;;;;4939586;29;20484;-83
2023/06/16 00:53:56;;;;;;;8.70;8.30;;;18.90;52.60;;;;;;4941323;28;20460;-83
2023/06/16 00:56:24;;;;;;;8.03;7.63;;;18.90;53.60;;;;;;4954905;28;20460;-85
2023/06/16 00:58:54;;;;;;;8.10;7.70;;;18.90;54.30;;;;;;4938997;28;20832;-85
2023/06/16 01:01:26;;;;;;;8.83;8.43;;;18.90;47.80;;;;;;4942126;28;21103;-86
2023/06/16 01:03:55;;;;;;;9.37;8.97;;;18.80;56.10;;;;;;4940109;28;20467;-84
2023/06/16 01:06:38;;;;;;;9.77;9.20;;;18.80;54.80;;;;;;4940855;28;20461;-85
2023/06/16 01:09:16;;;;;;;9.67;9.07;;;18.70;55.40;;;;;;4942130;28;20464;-84
2023/06/16 01:11:51;;;;;;;9.97;9.47;;;18.60;55.20;;;;;;4939422;28;20484;-84
2023/06/16 01:14:24;;;;;;;9.23;8.80;;;18.60;54.90;;;;;;4938089;28;21011;-85
2023/06/16 01:16:53;;;;;;;9.00;8.60;;;18.60;55.70;;;;;;4938516;28;20468;-85
2023/06/16 01:19:29;;;;;;;8.97;8.47;;;18.70;56.20;;;;;;4953220;28;20461;-85
2023/06/16 01:22:06;;;;;;;8.90;8.50;;;18.50;55.30;;;;;;4938814;28;20483;-85
2023/06/16 01:24:36;;;;;;;9.07;8.53;;;18.50;72.60;;;;;;4937867;28;20486;-85
2023/06/16 01:27:08;;;;;;;8.60;8.20;;;18.50;57.20;;;;;;4938251;28;20822;-83
2023/06/16 01:29:39;;;;;;;8.63;8.20;;;18.50;57.80;;;;;;4938265;28;20457;-85
2023/06/16 01:32:10;;;;;;;9.03;8.43;;;18.40;59.50;;;;;;4937454;28;21068;-84
2023/06/16 01:34:39;;;;;;;9.20;8.70;;;18.40;57.10;;;;;;4939391;29;20460;-84
2023/06/16 01:37:09;;;;;;;9.10;8.60;;;18.30;56.70;;;;;;4942543;28;20463;-85
2023/06/16 01:39:39;;;;;;;9.60;9.10;;;18.20;56.00;;;;;;4936892;28;20463;-85
2023/06/16 01:42:09;;;;;;;9.13;8.73;;;18.20;56.20;;;;;;4939483;28;20488;-84
2023/06/16 01:44:38;;;;;;;9.37;8.93;;;18.20;57.90;;;;;;4940770;28;20487;-83
2023/06/16 01:47:07;;;;;;;8.60;8.20;;;18.20;58.40;;;;;;4936187;28;20853;-84
2023/06/16 01:49:36;;;;;;;9.10;8.60;;;18.20;58.60;;;;;;4934953;28;20516;-81
2023/06/16 01:52:06;;;;;;;8.70;8.30;;;18.20;59.00;;;;;;4940146;28;20476;-83
2023/06/16 01:54:34;;;;;;;9.43;8.93;;;18.10;58.80;;;;;;4939146;28;20457;-84
2023/06/16 01:57:04;;;;;;;9.37;8.87;;;18.10;60.40;;;;;;4938800;28;20464;-83
2023/06/16 01:59:33;;;;;;;8.97;8.57;;;18.20;63.40;;;;;;4936887;28;20456;-84
2023/06/16 02:02:08;;;;;;;9.80;9.20;;;18.10;62.50;;;;;;4938734;28;20490;-84
2023/06/16 02:04:41;;;;;;;10.10;9.57;;;18.10;61.70;;;;;;4934446;28;20483;-82
2023/06/16 02:07:14;;;;;;;10.07;9.47;;;18.00;61.80;;;;;;4940390;28;20467;-84
2023/06/16 02:09:43;;;;;;;9.30;8.90;;;18.10;65.30;;;;;;4939466;28;20476;-83
2023/06/16 02:12:14;;;;;;;10.87;10.27;;;18.10;67.00;;;;;;4940676;28;20492;-84
2023/06/16 02:14:43;;;;;;;9.70;9.10;;;18.00;67.50;;;;;;4943068;28;20467;-81
2023/06/16 02:17:12;;;;;;;10.67;10.07;;;18.00;67.50;;;;;;4939866;28;20489;-82
2023/06/16 02:19:41;;;;;;;9.67;9.27;;;18.00;69.70;;;;;;4938797;28;20468;-81
2023/06/16 02:22:09;;;;;;;9.40;9.00;;;18.00;69.00;;;;;;4937387;28;21076;-85
2023/06/16 02:24:37;;;;;;;10.40;10.00;;;18.00;70.10;;;;;;4936118;28;20457;-85
2023/06/16 02:27:06;;;;;;;9.57;9.07;;;17.90;72.10;;;;;;4939160;28;20460;-86
2023/06/16 02:29:36;;;;;;;10.50;9.80;;;17.80;70.20;;;;;;4935070;28;20494;-85
2023/06/16 02:32:05;;;;;;;9.73;9.20;;;17.70;72.20;;;;;;4939699;28;21013;-85
2023/06/16 02:34:33;;;;;;;10.23;9.53;;;17.80;71.50;;;;;;4938386;28;20461;-85
2023/06/16 02:37:01;;;;;;;10.23;9.40;;;17.70;72.00;;;;;;4939730;28;20456;-84
2023/06/16 02:39:29;;;;;;;10.03;9.53;;;17.70;72.30;;;;;;4937920;28;20531;-85
2023/06/16 02:41:58;;;;;;;10.10;9.60;;;17.60;74.60;;;;;;4938692;28;20484;-84
2023/06/16 02:44:26;;;;;;;9.90;9.40;;;17.50;76.30;;;;;;4938017;28;20455;-85
2023/06/16 02:46:56;;;;;;;10.03;9.43;;;17.50;75.20;;;;;;4939201;28;20499;-86
2023/06/16 02:49:26;;;;;;;9.77;9.37;;;17.50;75.20;;;;;;4938979;28;20448;-86
2023/06/16 02:51:54;;;;;;;10.80;10.27;;;17.50;74.80;;;;;;4935947;29;20484;-85
2023/06/16 02:54:22;;;;;;;10.00;9.50;;;17.50;77.20;;;;;;4937962;28;20459;-85
2023/06/16 02:56:50;;;;;;;10.40;9.90;;;17.50;76.70;;;;;;4934857;28;20459;-85
2023/06/16 02:59:18;;;;;;;10.10;9.60;;;17.50;77.30;;;;;;4936843;29;20452;-83
2023/06/16 03:01:46;;;;;;;11.30;10.70;;;17.50;77.40;;;;;;4937873;28;20479;-84
2023/06/16 03:04:17;;;;;;;10.53;10.03;;;17.40;79.10;;;;;;4938265;28;20460;-84
2023/06/16 03:06:46;;;;;;;10.93;10.23;;;17.40;78.60;;;;;;4939163;28;20860;-83
2023/06/16 03:09:15;;;;;;;11.20;10.53;;;17.40;81.70;;;;;;4937092;28;20476;-82
2023/06/16 03:11:43;;;;;;;10.00;9.50;;;17.30;80.20;;;;;;4938401;29;20477;-82
2023/06/16 03:14:11;;;;;;;10.80;10.20;;;17.40;79.90;;;;;;4939676;28;20503;-83
2023/06/16 03:16:40;;;;;;;12.23;11.53;;;17.30;78.90;;;;;;4936220;28;20464;-84
2023/06/16 03:19:09;;;;;;;10.50;9.80;;;17.30;79.50;;;;;;4937042;28;20496;-85
2023/06/16 03:21:39;;;;;;;11.03;10.40;;;17.30;79.30;;;;;;4928456;28;21072;-84
2023/06/16 03:24:08;;;;;;;11.23;10.63;;;17.30;82.10;;;;;;4940500;28;20466;-85
2023/06/16 03:26:37;;;;;;;10.70;10.13;;;17.30;80.60;;;;;;4940972;28;20491;-84
2023/06/16 03:29:05;;;;;;;10.30;9.80;;;17.20;81.90;;;;;;4939332;28;20460;-84
2023/06/16 03:31:33;;;;;;;10.60;10.07;;;17.20;82.70;;;;;;4936458;28;20525;-85
2023/06/16 03:34:02;;;;;;;10.20;9.70;;;17.10;87.20;;;;;;4938425;28;20479;-84
2023/06/16 03:36:51;;;;;;;10.20;9.60;;;17.20;87.00;;;;;;4937665;28;20464;-84
2023/06/16 03:39:20;;;;;;;10.80;10.10;;;17.20;89.20;;;;;;4937394;28;20453;-84
2023/06/16 03:41:48;;;;;;;10.03;9.53;;;17.20;87.90;;;;;;4943397;28;20489;-83
2023/06/16 03:44:16;;;;;;;10.47;9.87;;;17.20;89.00;;;;;;4943692;28;20969;-83
2023/06/16 03:46:45;;;;;;;10.77;10.17;;;17.20;90.00;;;;;;4942020;28;20839;-83
2023/06/16 03:49:13;;;;;;;11.00;10.40;;;17.20;90.40;;;;;;4939727;28;20463;-81
2023/06/16 03:51:41;;;;;;;9.90;9.50;;;17.20;90.50;;;;;;4943468;28;20475;-83
2023/06/16 03:54:12;;;;;;;10.80;10.30;;;17.30;92.50;;;;;;4942872;28;20551;-83
2023/06/16 03:56:40;;;;;;;10.40;9.90;;;17.20;92.60;;;;;;4939794;28;20928;-84
2023/06/16 03:59:08;;;;;;;10.80;10.20;;;17.20;92.70;;;;;;4942507;28;20465;-84
2023/06/16 04:01:37;;;;;;;11.80;11.13;;;17.10;92.40;;;;;;4935115;28;20515;-81
2023/06/16 04:04:06;;;;;;;11.20;10.60;;;17.00;92.70;;;;;;4942463;28;20524;-81
2023/06/16 04:06:34;;;;;;;11.87;10.97;;;17.00;93.20;;;;;;4942710;28;20479;-83
2023/06/16 04:09:03;;;;;;;12.00;11.40;;;17.00;94.10;;;;;;4943318;29;20477;-83
2023/06/16 04:11:36;;;;;;;12.50;11.60;;;17.00;93.70;;;;;;4940598;28;20495;-84
2023/06/16 04:14:04;;;;;;;11.90;11.30;;;17.00;93.40;;;;;;4942893;28;20467;-84
2023/06/16 04:16:32;;;;;;;11.63;11.10;;;17.00;94.80;;;;;;4942193;29;20518;-83
2023/06/16 04:19:03;;;;;;;11.20;10.70;;;17.00;94.40;;;;;;4940437;28;20837;-84
2023/06/16 04:21:31;;;;;;;11.47;10.83;;;17.00;95.60;;;;;;4935820;28;20491;-83
2023/06/16 04:24:00;;;;;;;12.20;11.40;;;17.00;98.60;;;;;;4942753;28;20483;-84
2023/06/16 04:26:28;;;;;;;12.40;11.80;;;17.10;97.90;;;;;;4941421;28;20506;-84
2023/06/16 04:29:03;;;;;;;11.13;10.63;;;17.10;99.50;;;;;;4942802;28;20457;-85
2023/06/16 04:31:32;;;;;;;13.03;12.13;;;17.10;99.30;;;;;;4941745;28;20476;-81
2023/06/16 04:34:03;;;;;;;12.10;11.50;;;17.10;99.70;;;;;;4938765;28;20456;-80
2023/06/16 04:36:34;;;;;;;12.20;11.70;;;17.20;99.90;;;;;;4939379;28;20624;-83
2023/06/16 04:39:03;;;;;;;12.40;11.50;;;17.30;99.90;;;;;;4938246;28;20500;-84
2023/06/16 04:41:35;;;;;;;13.40;12.60;;;17.40;99.90;;;;;;4932802;28;20487;-84
2023/06/16 04:44:04;;;;;;;13.63;12.85;;;17.30;99.90;;;;;;4940536;28;20459;-84
2023/06/16 04:46:33;;;;;;;13.07;12.37;;;17.10;99.60;;;;;;4941726;28;20728;-85
2023/06/16 04:49:01;;;;;;;12.00;11.50;;;17.40;99.90;;;;;;4937957;28;20456;-85
2023/06/16 04:51:29;;;;;;;11.90;11.20;;;17.40;99.70;;;;;;4937841;28;20487;-86
2023/06/16 04:53:58;;;;;;;13.20;12.40;;;17.40;99.90;;;;;;4933851;28;20453;-84
2023/06/16 04:56:26;;;;;;;12.60;11.90;;;17.50;99.70;;;;;;4938178;28;20456;-83
2023/06/16 04:58:54;;;;;;;12.53;11.90;;;17.50;99.80;;;;;;4939281;28;20467;-84
2023/06/16 05:01:28;;;;;;;13.20;12.33;;;17.60;99.60;;;;;;4933840;28;20840;-86
2023/06/16 05:04:00;;;;;;;11.87;11.17;;;17.70;99.00;;;;;;4939048;28;20467;-83
2023/06/16 05:06:28;;;;;;;13.10;12.40;;;17.70;99.90;;;;;;4939055;28;20496;-85
2023/06/16 05:09:19;;;;;;;12.57;11.90;;;17.60;99.70;;;;;;4941808;28;20463;-81
2023/06/16 05:12:33;;;;;;;12.93;12.13;;;17.60;99.70;;;;;;4935065;29;20487;-82
2023/06/16 05:15:06;;;;;;;13.10;12.50;;;17.60;99.90;;;;;;4926089;28;20467;-84
2023/06/16 05:17:57;;;;;;;13.50;12.80;;;17.60;99.90;;;;;;4932090;28;20197;-82
2023/06/16 05:24:00;;;;;;;12.70;11.93;;;17.80;99.90;;;;;;4938850;28;20486;-84
2023/06/16 05:26:36;;;;;;;12.70;12.10;;;17.90;99.90;;;;;;4940022;28;20479;-83
2023/06/16 05:29:05;;;;;;;12.80;12.20;;;17.90;99.80;;;;;;4938627;28;20991;-84
2023/06/16 05:31:33;;;;;;;13.10;12.40;;;17.90;97.00;;;;;;4940828;28;20542;-84
2023/06/16 05:34:02;;;;;;;13.57;12.50;;;18.00;98.40;;;;;;4939611;28;20463;-84
2023/06/16 05:36:34;;;;;;;12.80;12.10;;;18.10;99.20;;;;;;4939025;28;20982;-85
2023/06/16 05:39:03;;;;;;;12.93;12.33;;;18.10;99.70;;;;;;4938474;28;20544;-83
2023/06/16 05:41:31;;;;;;;13.73;12.90;;;18.10;99.20;;;;;;4936268;28;20484;-81
2023/06/16 05:43:59;;;;;;;14.67;13.77;;;18.10;97.50;;;;;;4941477;28;20453;-83
2023/06/16 05:46:27;;;;;;;14.40;13.33;;;18.10;97.60;;;;;;4938280;28;20456;-81
2023/06/16 05:48:57;;;;;;;15.50;14.60;;;18.10;96.60;;;;;;4938859;28;20465;-84
2023/06/16 05:51:27;;;;;;;13.40;12.67;;;18.30;98.20;;;;;;4938704;28;20492;-84
2023/06/16 05:53:55;;;;;;;13.67;12.97;;;18.30;98.10;;;;;;4938062;28;20468;-84
2023/06/16 05:56:24;;;;;;;13.30;12.60;;;18.30;95.40;;;;;;4941403;28;20460;-84
2023/06/16 05:58:52;;;;;;;13.60;12.90;;;18.50;97.10;;;;;;4939756;28;20492;-83
2023/06/16 06:01:20;;;;;;;14.00;12.90;;;18.50;97.20;;;;;;4934731;28;20534;-84
2023/06/16 06:03:48;;;;;;;14.03;13.13;;;18.60;98.50;;;;;;4941519;28;21260;-84
2023/06/16 06:06:17;;;;;;;14.10;13.30;;;18.60;96.50;;;;;;4935192;28;20465;-83
2023/06/16 06:08:47;;;;;;;13.97;13.17;;;18.60;94.10;;;;;;4936733;28;20884;-80
2023/06/16 06:11:15;;;;;;;13.73;13.03;;;18.70;95.10;;;;;;4937616;28;20489;-85
2023/06/16 06:13:43;;;;;;;14.50;13.53;;;18.80;96.00;;;;;;4938894;28;20845;-85
2023/06/16 06:16:11;;;;;;;14.40;13.20;;;18.90;96.30;;;;;;4938739;28;20987;-85
2023/06/16 06:18:43;;;;;;;14.07;13.17;;;18.90;96.30;;;;;;4938686;28;20456;-86
2023/06/16 06:21:11;;;;;;;13.90;13.10;;;19.00;95.30;;;;;;4936387;28;20504;-85
2023/06/16 06:23:40;;;;;;;13.50;12.67;;;19.00;95.40;;;;;;4938232;28;20505;-85
2023/06/16 06:26:09;;;;;;;14.07;13.27;;;19.10;95.10;;;;;;4935205;28;20526;-85
2023/06/16 06:28:39;;;;;;;16.30;13.60;;;19.10;95.00;;;;;;4936854;28;20483;-85
2023/06/16 06:31:07;;;;;;;13.67;12.73;;;19.20;95.50;;;;;;4937537;28;20479;-85
2023/06/16 06:33:35;;;;;;;13.27;12.53;;;19.20;93.10;;;;;;4940531;28;20552;-85
2023/06/16 06:36:04;;;;;;;14.00;13.13;;;19.20;94.10;;;;;;4938131;28;20464;-85
2023/06/16 06:38:32;;;;;;;13.90;13.10;;;19.30;92.50;;;;;;4938808;28;20559;-85
2023/06/16 06:41:01;;;;;;;13.77;12.97;;;19.30;91.60;;;;;;4935908;28;20480;-85
2023/06/16 06:43:31;;;;;;;13.90;13.30;;;19.30;96.40;;;;;;4938640;28;20464;-84
2023/06/16 06:45:59;;;;;;;13.77;12.93;;;19.40;91.50;;;;;;4939137;28;21106;-85
2023/06/16 06:48:27;;;;;;;13.60;13.00;;;19.40;91.70;;;;;;4941481;28;20519;-80
2023/06/16 06:50:56;;;;;;;13.60;12.60;;;19.50;92.70;;;;;;4936574;28;20941;-85
2023/06/16 06:53:24;;;;;;;13.30;12.60;;;19.40;93.10;;;;;;4941153;28;21051;-85
2023/06/16 06:55:52;;;;;;;14.00;13.30;;;19.50;94.60;;;;;;4936830;28;20475;-85
2023/06/16 06:58:20;;;;;;;14.80;13.90;;;19.60;96.30;;;;;;4935432;28;20464;-83
2023/06/16 07:00:50;;;;;;;13.93;13.23;;;19.60;93.00;;;;;;4936354;28;20492;-85
2023/06/16 07:03:18;;;;;;;14.73;14.00;;;19.70;93.00;;;;;;4940066;28;20962;-83
2023/06/16 07:05:46;;;;;;;13.83;12.87;;;19.80;92.40;;;;;;4937846;28;20522;-84
2023/06/16 07:08:14;;;;;;;14.20;13.03;;;19.80;93.80;;;;;;4938426;28;20923;-86
2023/06/16 07:10:42;;;;;;;13.67;12.77;;;19.90;93.80;;;;;;4938178;28;20479;-81
2023/06/16 07:13:10;;;;;;;13.60;12.70;;;20.00;93.30;;;;;;4932416;28;20459;-84
2023/06/16 07:15:39;;;;;;;14.33;13.63;;;20.00;95.90;;;;;;4941254;28;20568;-85
2023/06/16 07:18:08;;;;;;;13.47;12.57;;;20.10;94.40;;;;;;4944029;28;20512;-84
2023/06/16 07:20:36;;;;;;;12.90;12.20;;;20.20;94.60;;;;;;4944541;28;20833;-84
2023/06/16 07:23:05;;;;;;;13.70;12.80;;;20.30;94.60;;;;;;4941538;28;20479;-84
2023/06/16 07:25:36;;;;;;;12.33;11.80;;;20.30;93.40;;;;;;4942025;28;20490;-85
2023/06/16 07:28:05;;;;;;;13.17;12.47;;;20.40;93.00;;;;;;4941582;28;20484;-82
2023/06/16 07:30:33;;;;;;;12.53;11.83;;;20.50;93.80;;;;;;4943346;28;21034;-83
2023/06/16 07:33:01;;;;;;;12.50;11.90;;;20.50;93.40;;;;;;4942692;28;20464;-85
2023/06/16 07:35:31;;;;;;;13.20;12.47;;;20.50;95.30;;;;;;4940700;28;20495;-85
2023/06/16 07:37:59;;;;;;;11.17;10.57;;;20.50;92.20;;;;;;4943846;28;20464;-84
2023/06/16 07:40:27;;;;;;;11.90;11.20;;;20.60;90.90;;;;;;4941547;29;20476;-84
2023/06/16 07:43:23;;;;;;;11.30;10.73;;;20.70;90.60;;;;;;4938021;28;20471;-82
2023/06/16 07:46:59;;;;;;;11.33;10.60;;;20.70;90.30;;;;;;4941031;28;20746;-84
2023/06/16 07:49:52;;;;;;;12.43;11.77;;;20.80;91.80;;;;;;4943092;28;20480;-85
2023/06/16 07:52:44;;;;;;;11.90;11.27;;;20.90;90.90;;;;;;4944042;28;20543;-85
2023/06/16 07:55:12;;;;;;;10.93;10.43;;;20.90;91.60;;;;;;4936936;28;20539;-82
2023/06/16 07:57:43;;;;;;;12.17;11.37;;;21.00;89.20;;;;;;4943502;28;21039;-85
2023/06/16 08:00:14;;;;;;;11.60;10.83;;;21.10;93.30;;;;;;4945295;28;21116;-86
2023/06/16 08:03:17;;;;;;;11.50;10.70;;;21.20;85.50;;;;;;4942148;28;21051;-86
2023/06/16 08:06:07;;;;;;;10.20;9.67;;;21.30;85.20;;;;;;4941406;28;20475;-84
2023/06/16 08:08:37;;;;;;;10.47;9.97;;;21.40;78.00;;;;;;4938039;28;21365;-86
2023/06/16 08:11:06;;;;;;;10.73;10.20;;;21.40;79.60;;;;;;4985480;23;20902;-84
2023/06/16 08:17:10;;;;;;;10.33;9.83;;;21.50;75.50;;;;;;4959797;28;20841;-85
2023/06/16 08:22:51;;;;;;;9.10;8.70;;;21.60;73.30;;;;;;4921206;28;20603;-86
2023/06/16 08:25:47;;;;;;;9.67;9.20;;;21.70;72.80;;;;;;4923464;29;20469;-85
2023/06/16 08:28:16;;;;;;;9.57;9.10;;;21.80;74.50;;;;;;4924991;29;20505;-83
2023/06/16 08:30:44;;;;;;;10.10;9.70;;;21.90;73.50;;;;;;4923857;29;20485;-85
2023/06/16 08:33:12;;;;;;;10.00;9.50;;;21.90;76.20;;;;;;4918487;29;20467;-82
2023/06/16 08:40:10;;;;;;;10.30;9.70;;;22.00;72.60;;;;;;4922940;29;20444;-85
2023/06/16 08:42:41;;;;;;;9.53;9.13;;;22.10;76.10;;;;;;4919663;29;20461;-80
2023/06/16 08:46:02;;;;;;;10.60;10.00;;;22.10;77.40;;;;;;4917504;29;20460;-84
2023/06/16 08:48:56;;;;;;;10.10;9.30;;;22.10;78.50;;;;;;4923429;29;20531;-84
2023/06/16 08:51:50;;;;;;;10.57;10.00;;;22.20;75.90;;;;;;4921693;29;20574;-85
2023/06/16 08:54:21;;;;;;;10.30;9.80;;;22.20;76.00;;;;;;4924194;29;20850;-84
2023/06/16 08:56:51;;;;;;;10.37;10.03;;;22.20;73.40;;;;;;4921788;29;20488;-84
2023/06/16 08:59:24;;;;;;;10.80;10.10;;;22.30;76.90;;;;;;4922055;29;21082;-85
2023/06/16 09:02:25;;;;;;;10.07;9.60;;;22.30;74.00;;;;;;4921251;29;20521;-84
2023/06/16 09:05:37;;;;;;;10.43;10.03;;;22.30;74.70;;;;;;4924141;29;20469;-85
2023/06/16 09:08:08;;;;;;;10.80;10.20;;;22.30;75.00;;;;;;4920028;29;20480;-86
2023/06/16 09:10:36;;;;;;;10.23;9.60;;;22.30;73.90;;;;;;4923305;29;20465;-86
2023/06/16 09:13:04;;;;;;;10.30;9.80;;;22.40;74.50;;;;;;4924387;29;20468;-85
2023/06/16 09:15:35;;;;;;;9.67;9.20;;;22.50;75.30;;;;;;4919976;29;20966;-85
2023/06/16 09:18:07;;;;;;;10.63;10.00;;;22.50;74.80;;;;;;4921122;29;20465;-85
2023/06/16 09:20:39;;;;;;;10.77;10.20;;;22.50;74.80;;;;;;4920640;29;21264;-85
2023/06/16 09:23:08;;;;;;;10.37;9.77;;;22.60;72.60;;;;;;4924102;29;20461;-85
2023/06/16 09:25:38;;;;;;;10.50;10.10;;;22.70;76.10;;;;;;4919145;29;21042;-82
2023/06/16 09:28:08;;;;;;;10.33;9.80;;;22.80;91.50;;;;;;4920500;29;20983;-85
2023/06/16 09:30:38;;;;;;;10.47;9.70;;;22.80;74.20;;;;;;4921904;29;20481;-83
2023/06/16 09:33:11;;;;;;;9.87;9.27;;;22.90;72.00;;;;;;4921021;29;20481;-84
2023/06/16 09:35:41;;;;;;;9.60;8.80;;;22.90;72.60;;;;;;4920696;29;20983;-84
2023/06/16 09:38:10;;;;;;;9.23;8.73;;;23.00;73.00;;;;;;4920739;29;20983;-84
2023/06/16 09:40:39;;;;;;;9.00;8.60;;;23.00;71.60;;;;;;4921489;29;20933;-85
2023/06/16 09:43:11;;;;;;;9.17;8.77;;;22.90;74.10;;;;;;4922361;29;20544;-84
2023/06/16 09:45:44;;;;;;;9.27;8.83;;;22.80;68.80;;;;;;4926167;29;20479;-84
2023/06/16 09:48:13;;;;;;;9.30;8.67;;;22.80;68.90;;;;;;4920509;29;20544;-83
2023/06/16 09:50:41;;;;;;;9.17;8.70;;;22.80;69.90;;;;;;4922078;29;21013;-84
2023/06/16 09:53:10;;;;;;;8.33;7.93;;;22.80;69.50;;;;;;4920401;29;20477;-85
2023/06/16 09:55:39;;;;;;;7.80;7.50;;;22.90;69.20;;;;;;4922986;29;20466;-86
2023/06/16 09:58:08;;;;;;;8.30;7.90;;;23.00;68.50;;;;;;4919425;29;20453;-84
2023/06/16 10:00:36;;;;;;;8.40;8.10;;;22.90;69.90;;;;;;4922654;29;20465;-85
2023/06/16 10:03:09;;;;;;;8.93;8.53;;;22.90;69.30;;;;;;4922875;29;20547;-85
2023/06/16 10:05:40;;;;;;;8.30;7.90;;;22.90;65.30;;;;;;4921750;29;20995;-85
2023/06/16 10:08:08;;;;;;;8.83;8.10;;;22.90;66.70;;;;;;4918256;29;20469;-84
2023/06/16 10:10:42;;;;;;;8.93;8.53;;;23.00;68.00;;;;;;4919530;29;21097;-85
2023/06/16 10:13:12;;;;;;;9.03;8.63;;;23.00;67.90;;;;;;4936391;28;20465;-85
2023/06/16 10:15:42;;;;;;;9.30;8.40;;;23.10;68.10;;;;;;4917828;29;21222;-85
2023/06/16 10:18:15;;;;;;;9.53;8.93;;;23.20;71.20;;;;;;4918424;29;20466;-85
2023/06/16 10:20:47;;;;;;;8.57;8.17;;;23.20;70.60;;;;;;4921073;29;20488;-84
2023/06/16 10:23:16;;;;;;;8.37;8.00;;;23.20;67.60;;;;;;4933988;29;20453;-83
2023/06/16 10:25:45;;;;;;;8.20;7.73;;;23.30;68.80;;;;;;4915155;29;21127;-85
2023/06/16 10:28:14;;;;;;;9.07;8.37;;;23.40;70.20;;;;;;4915652;29;20466;-84
2023/06/16 10:30:44;;;;;;;7.47;7.17;;;23.40;70.80;;;;;;4915915;29;21063;-85
2023/06/16 10:33:19;;;;;;;7.93;7.53;;;23.40;69.50;;;;;;4917570;29;20461;-85
2023/06/16 10:35:51;;;;;;;7.60;7.30;;;23.50;69.10;;;;;;4917277;29;22568;-85
2023/06/16 10:38:39;;;;;;;8.57;8.17;;;23.50;68.50;;;;;;4921644;29;21063;-84
2023/06/16 10:41:14;;;;;;;8.10;7.80;;;23.50;71.40;;;;;;4917935;29;20543;-84
2023/06/16 10:43:43;;;;;;;8.87;8.37;;;23.50;72.50;;;;;;4920785;29;20479;-84
2023/06/16 10:46:16;;;;;;;8.77;8.30;;;23.60;72.00;;;;;;4911170;29;20469;-85
2023/06/16 10:49:18;;;;;;;9.40;9.00;;;23.70;69.00;;;;;;4917379;29;20897;-85
2023/06/16 10:51:48;;;;;;;8.80;8.33;;;23.60;69.40;;;;;;4918122;29;20813;-85
2023/06/16 10:54:35;;;;;;;9.30;8.90;;;23.70;69.50;;;;;;4918810;29;20522;-85
2023/06/16 10:57:05;;;;;;;10.10;9.53;;;23.70;72.20;;;;;;4917114;29;20855;-85
2023/06/16 10:59:59;;;;;;;9.43;9.03;;;23.80;71.20;;;;;;4917910;29;21518;-85
2023/06/16 11:02:29;;;;;;;9.20;8.70;;;23.80;70.90;;;;;;4919421;29;20473;-86
2023/06/16 11:05:15;;;;;;;9.70;9.00;;;23.80;70.30;;;;;;4923043;29;20908;-84
2023/06/16 11:07:46;;;;;;;8.50;8.17;;;23.80;69.90;;;;;;4913640;29;20466;-83
2023/06/16 11:10:20;;;;;;;8.37;7.97;;;23.80;69.80;;;;;;4915632;29;20485;-84
2023/06/16 11:13:12;;;;;;;10.03;9.40;;;23.80;68.40;;;;;;4921349;29;20935;-85
2023/06/16 11:15:43;;;;;;;8.60;8.20;;;23.90;70.70;;;;;;4917730;29;20547;-84
2023/06/16 11:18:12;;;;;;;12.40;11.40;;;23.90;69.90;;;;;;4917278;29;21240;-81
2023/06/16 11:20:42;;;;;;;10.20;9.43;;;23.90;71.30;;;;;;4918058;29;20477;-83
2023/06/16 11:23:10;;;;;;;9.43;8.97;;;24.00;72.80;;;;;;4918602;29;20469;-85
2023/06/16 11:25:38;;;;;;;14.23;9.20;;;24.00;81.30;;;;;;4918011;29;20466;-85
2023/06/16 11:28:06;;;;;;;8.63;8.13;;;24.00;74.20;;;;;;4921811;29;20480;-84
2023/06/16 11:30:37;;;;;;;8.77;8.43;;;24.00;73.50;;;;;;4913667;29;20725;-84
2023/06/16 11:33:06;;;;;;;10.00;9.37;;;24.10;75.60;;;;;;4907590;29;20845;-81
2023/06/16 11:35:44;;;;;;;8.43;8.10;;;24.20;75.70;;;;;;4918876;29;20457;-81
2023/06/16 11:38:40;;;;;;;9.00;8.27;;;24.10;74.20;;;;;;4921250;29;20535;-80
2023/06/16 11:41:59;;;;;;;8.83;8.20;;;24.10;74.10;;;;;;4918244;29;20746;-82
2023/06/16 11:44:46;;;;;;;8.40;7.90;;;24.20;90.70;;;;;;4926209;29;20457;-82
2023/06/16 11:47:36;;;;;;;8.07;7.57;;;24.20;70.70;;;;;;4937349;29;20450;-82
2023/06/16 11:50:08;;;;;;;8.17;7.73;;;24.40;71.70;;;;;;4921522;29;20601;-83
2023/06/16 11:52:38;;;;;;;7.67;7.20;;;24.40;70.90;;;;;;4921923;29;20461;-84
2023/06/16 11:55:07;;;;;;;7.50;7.10;;;24.30;73.00;;;;;;4922079;29;20454;-82
2023/06/16 11:57:51;;;;;;;8.80;8.30;;;24.40;74.50;;;;;;4926416;29;20520;-83
2023/06/16 12:00:27;;;;;;;8.00;7.50;;;24.40;74.80;;;;;;4924832;29;20485;-81
2023/06/16 12:03:16;;;;;;;7.83;7.53;;;24.40;72.60;;;;;;4931474;29;20541;-81
2023/06/16 12:06:23;;;;;;;8.37;7.97;;;24.40;74.70;;;;;;4930030;29;20453;-81
2023/06/16 12:09:04;;;;;;;8.43;7.93;;;24.30;74.70;;;;;;4943093;29;20460;-82
2023/06/16 12:15:04;;;;;;;8.33;7.90;;;24.40;76.30;;;;;;4928654;29;20469;-82
2023/06/16 12:17:39;;;;;;;8.30;7.90;;;24.40;77.60;;;;;;4925705;29;20490;-82
2023/06/16 12:20:23;;;;;;;8.60;8.10;;;24.50;68.50;;;;;;4924313;29;20202;-83
2023/06/16 12:22:59;;;;;;;8.00;7.60;;;24.50;68.90;;;;;;4928294;29;20542;-81
2023/06/16 12:25:30;;;;;;;8.20;7.90;;;24.60;72.70;;;;;;4929265;29;20470;-83
2023/06/16 12:27:58;;;;;;;8.40;8.00;;;24.50;72.50;;;;;;4945531;29;20453;-82
2023/06/16 12:30:33;;;;;;;8.20;7.80;;;24.50;71.10;;;;;;4931933;29;20495;-81
2023/06/16 12:33:12;;;;;;;7.80;7.30;;;24.50;70.60;;;;;;4931154;29;20516;-82
2023/06/16 12:35:47;;;;;;;7.47;7.07;;;24.70;69.50;;;;;;4921961;29;20461;-82
2023/06/16 12:38:15;;;;;;;8.27;7.80;;;24.60;75.50;;;;;;4920681;29;20487;-82
2023/06/16 12:40:45;;;;;;;8.30;7.70;;;24.70;73.20;;;;;;4922289;29;20477;-83
2023/06/16 12:43:23;;;;;;;8.10;7.60;;;24.80;74.00;;;;;;4925121;29;20830;-81
2023/06/16 12:45:51;;;;;;;8.00;7.50;;;24.70;73.20;;;;;;4924893;29;20880;-83
2023/06/16 12:48:24;;;;;;;7.50;7.20;;;24.90;74.00;;;;;;4921871;29;20963;-83
2023/06/16 12:50:58;;;;;;;8.33;7.90;;;24.80;76.00;;;;;;4920315;29;20671;-82
2023/06/16 12:53:41;;;;;;;8.03;7.27;;;24.80;75.60;;;;;;4924476;29;20565;-82
2023/06/16 12:56:12;;;;;;;8.40;7.70;;;24.80;74.80;;;;;;4924149;29;20461;-83
2023/06/16 12:58:40;;;;;;;8.40;7.80;;;24.80;75.70;;;;;;4922904;29;20544;-82
2023/06/16 13:01:33;;;;;;;7.70;7.30;;;24.90;73.70;;;;;;4922856;29;21076;-82
2023/06/16 13:04:02;;;;;;;8.20;7.50;;;24.90;75.80;;;;;;4921194;29;20453;-82
2023/06/16 13:06:30;;;;;;;8.00;7.60;;;24.80;91.50;;;;;;4920569;29;20498;-83
2023/06/16 13:08:58;;;;;;;8.30;7.70;;;24.90;74.80;;;;;;4922264;29;20998;-81
2023/06/16 13:11:28;;;;;;;8.33;7.83;;;24.90;75.40;;;;;;4920440;29;20478;-82
2023/06/16 13:13:56;;;;;;;7.70;7.30;;;25.00;75.50;;;;;;4923665;29;20557;-82
2023/06/16 13:16:25;;;;;;;8.70;8.20;;;25.00;75.30;;;;;;4922837;29;20568;-83
2023/06/16 13:18:55;;;;;;;9.33;8.73;;;24.90;75.20;;;;;;4923356;29;20453;-82
2023/06/16 13:21:25;;;;;;;8.53;8.03;;;25.00;75.30;;;;;;4920919;29;20505;-82
2023/06/16 13:23:56;;;;;;;8.10;7.53;;;25.00;77.20;;;;;;4922263;29;20453;-82